createdAt,value
2018-03-14T00:00:55.697Z,16.95
2018-03-14T00:03:22.332Z,17.90
2018-03-14T00:05:49.041Z,16.50
2018-03-14T00:08:15.786Z,17.55
2018-03-14T00:10:42.523Z,17.62
2018-03-14T00:13:09.261Z,17.27
2018-03-14T00:15:35.921Z,17.37
2018-03-14T00:18:02.561Z,18.05
2018-03-14T00:20:29.212Z,17.17
2018-03-14T00:22:55.855Z,18.25
2018-03-14T00:25:22.565Z,17.25
2018-03-14T00:27:49.211Z,16.62
2018-03-14T00:30:15.940Z,18.05
2018-03-14T00:32:42.590Z,18.73
2018-03-14T00:35:09.232Z,18.35
2018-03-14T00:37:35.894Z,14.05
2018-03-14T00:40:02.610Z,15.38
2018-03-14T00:42:29.352Z,17.90
2018-03-14T00:44:56.110Z,17.80
2018-03-14T00:47:22.765Z,17.60
2018-03-14T00:49:49.400Z,17.60
2018-03-14T00:52:16.103Z,19.25
2018-03-14T00:54:42.743Z,17.75
2018-03-14T00:57:09.392Z,17.25
2018-03-14T00:59:36.032Z,17.25
2018-03-14T01:02:02.707Z,19.02
2018-03-14T01:04:29.345Z,18.75
2018-03-14T01:06:56.006Z,17.42
2018-03-14T01:09:22.676Z,16.87
2018-03-14T01:11:49.337Z,16.20
2018-03-14T01:14:16.060Z,16.15
2018-03-14T01:16:42.805Z,17.40
2018-03-14T01:19:09.544Z,18.25
2018-03-14T01:21:36.294Z,18.17
2018-03-14T01:24:02.953Z,18.45
2018-03-14T01:26:29.592Z,16.00
2018-03-14T01:28:56.252Z,16.98
2018-03-14T01:31:22.888Z,14.23
2018-03-14T01:33:49.548Z,15.25
2018-03-14T01:36:16.216Z,12.93
2018-03-14T01:38:42.877Z,17.02
2018-03-14T01:41:09.605Z,16.87
2018-03-14T01:43:36.267Z,13.90
2018-03-14T01:46:02.915Z,15.15
2018-03-14T01:48:29.580Z,17.15
2018-03-14T01:50:56.272Z,16.33
2018-03-14T01:53:28.745Z,16.85
2018-03-14T01:55:55.410Z,18.48
2018-03-14T01:58:22.048Z,18.87
2018-03-14T02:00:48.688Z,19.25
2018-03-14T02:03:15.401Z,18.50
2018-03-14T02:05:42.132Z,21.40
2018-03-14T02:08:08.784Z,23.33
2018-03-14T02:10:35.424Z,21.08
2018-03-14T02:13:02.188Z,20.10
2018-03-14T02:15:28.841Z,19.80
2018-03-14T02:17:55.542Z,17.02
2018-03-14T02:20:22.135Z,18.58
2018-03-14T02:22:48.780Z,17.23
2018-03-14T02:25:15.451Z,16.12
2018-03-14T02:27:42.091Z,16.73
2018-03-14T02:30:08.752Z,17.20
2018-03-14T02:32:35.502Z,17.60
2018-03-14T02:35:02.225Z,19.30
2018-03-14T02:37:28.965Z,20.37
2018-03-14T02:39:55.706Z,21.37
2018-03-14T02:42:22.441Z,18.83
2018-03-14T02:44:49.097Z,19.85
2018-03-14T02:47:15.716Z,21.37
2018-03-14T02:49:42.352Z,20.75
2018-03-14T02:52:08.985Z,18.45
2018-03-14T02:54:35.631Z,19.20
2018-03-14T02:57:02.263Z,17.67
2018-03-14T02:59:28.888Z,17.35
2018-03-14T03:01:55.530Z,16.80
2018-03-14T03:04:22.173Z,17.42
2018-03-14T03:06:49.755Z,15.57
2018-03-14T03:09:16.457Z,14.63
2018-03-14T03:11:43.129Z,14.10
2018-03-14T03:14:09.757Z,15.07
2018-03-14T03:16:36.400Z,14.23
2018-03-14T03:19:03.058Z,13.80
2018-03-14T03:21:29.788Z,14.98
2018-03-14T03:23:56.418Z,13.68
2018-03-14T03:26:23.077Z,15.55
2018-03-14T03:28:49.713Z,13.32
2018-03-14T03:31:16.362Z,13.40
2018-03-14T03:33:42.994Z,13.15
2018-03-14T03:36:09.724Z,12.90
2018-03-14T03:38:36.347Z,15.07
2018-03-14T03:41:02.978Z,13.38
2018-03-14T03:43:29.661Z,13.60
2018-03-14T03:45:56.298Z,13.50
2018-03-14T03:48:22.949Z,12.27
2018-03-14T03:50:49.672Z,11.32
2018-03-14T03:53:16.316Z,12.65
2018-03-14T03:55:42.948Z,12.55
2018-03-14T03:58:09.580Z,12.32
2018-03-14T04:00:36.263Z,12.73
2018-03-14T04:03:02.864Z,13.35
2018-03-14T04:05:29.603Z,14.05
2018-03-14T04:07:56.340Z,11.75
2018-03-14T04:10:22.969Z,13.73
2018-03-14T04:12:49.607Z,13.15
2018-03-14T04:15:16.237Z,12.05
2018-03-14T04:17:42.905Z,12.90
2018-03-14T04:20:09.537Z,12.40
2018-03-14T04:22:36.249Z,12.00
2018-03-14T04:25:02.885Z,13.10
2018-03-14T04:27:29.527Z,13.95
2018-03-14T04:29:56.200Z,13.93
2018-03-14T04:32:22.845Z,13.10
2018-03-14T04:34:49.484Z,11.75
2018-03-14T04:37:16.117Z,12.88
2018-03-14T04:39:42.856Z,14.25
2018-03-14T04:42:09.486Z,14.43
2018-03-14T04:44:36.127Z,13.10
2018-03-14T04:47:02.751Z,14.68
2018-03-14T04:49:29.443Z,14.38
2018-03-14T04:51:56.060Z,13.88
2018-03-14T04:54:22.796Z,13.43
2018-03-14T04:56:49.419Z,12.65
2018-03-14T04:59:16.088Z,13.35
2018-03-14T05:01:42.824Z,14.05
2018-03-14T05:04:09.555Z,14.82
2018-03-14T05:06:36.180Z,14.00
2018-03-14T05:09:02.824Z,13.80
2018-03-14T05:11:29.448Z,14.65
2018-03-14T05:13:56.096Z,17.02
2018-03-14T05:16:22.761Z,16.92
2018-03-14T05:18:49.382Z,16.55
2018-03-14T05:21:16.128Z,17.05
2018-03-14T05:23:42.761Z,15.77
2018-03-14T05:26:09.400Z,16.40
2018-03-14T05:28:36.048Z,19.02
2018-03-14T05:31:02.696Z,15.35
2018-03-14T05:33:29.333Z,16.65
2018-03-14T05:35:55.964Z,17.27
2018-03-14T05:38:22.635Z,15.77
2018-03-14T05:40:49.281Z,14.85
2018-03-14T05:43:15.912Z,16.37
2018-03-14T05:45:42.593Z,15.35
2018-03-14T05:48:09.270Z,15.30
2018-03-14T05:50:35.937Z,15.10
2018-03-14T05:53:02.675Z,19.45
2018-03-14T05:55:29.415Z,17.30
2018-03-14T05:57:56.044Z,16.48
2018-03-14T06:00:22.797Z,16.98
2018-03-14T06:02:49.425Z,15.25
2018-03-14T06:05:16.077Z,15.95
2018-03-14T06:07:42.714Z,17.73
2018-03-14T06:10:09.340Z,17.55
2018-03-14T06:12:35.981Z,17.77
2018-03-14T06:15:02.714Z,16.20
2018-03-14T06:17:29.448Z,17.05
2018-03-14T06:19:56.072Z,17.58
2018-03-14T06:22:22.717Z,18.98
2018-03-14T06:24:49.393Z,17.55
2018-03-14T06:27:16.037Z,17.83
2018-03-14T06:29:42.673Z,16.58
2018-03-14T06:32:09.389Z,18.95
2018-03-14T06:34:36.051Z,17.15
2018-03-14T06:37:02.763Z,18.55
2018-03-14T06:39:29.407Z,20.00
2018-03-14T06:41:56.173Z,18.40
2018-03-14T06:44:22.799Z,21.08
2018-03-14T06:46:49.561Z,19.45
2018-03-14T06:49:16.277Z,19.45
2018-03-14T06:51:42.911Z,19.60
2018-03-14T06:54:09.537Z,17.15
2018-03-14T06:56:36.168Z,20.70
2018-03-14T06:59:08.605Z,16.90
2018-03-14T07:01:41.149Z,19.27
2018-03-14T07:04:13.608Z,17.87
2018-03-14T07:06:40.256Z,20.67
2018-03-14T07:09:06.905Z,18.02
2018-03-14T07:11:33.632Z,18.60
2018-03-14T07:14:00.381Z,16.60
2018-03-14T07:16:27.010Z,20.65
2018-03-14T07:18:53.755Z,19.42
2018-03-14T07:21:20.396Z,19.35
2018-03-14T07:23:47.028Z,20.45
2018-03-14T07:26:13.657Z,20.23
2018-03-14T07:28:40.339Z,19.30
2018-03-14T07:31:06.959Z,20.12
2018-03-14T07:33:33.697Z,21.33
2018-03-14T07:36:00.437Z,21.27
2018-03-14T07:38:27.182Z,19.87
2018-03-14T07:40:53.812Z,17.55
2018-03-14T07:43:20.440Z,17.75
2018-03-14T07:45:47.204Z,17.40
2018-03-14T07:48:13.845Z,16.17
2018-03-14T07:50:40.576Z,15.13
2018-03-14T07:53:07.241Z,16.62
2018-03-14T07:55:33.872Z,17.00
2018-03-14T07:58:00.592Z,17.52
2018-03-14T08:00:27.232Z,18.35
2018-03-14T08:02:53.865Z,18.08
2018-03-14T08:05:20.510Z,16.60
2018-03-14T08:07:47.137Z,17.10
2018-03-14T08:10:13.783Z,16.80
2018-03-14T08:12:40.440Z,17.33
2018-03-14T08:15:07.181Z,16.27
2018-03-14T08:17:33.825Z,16.80
2018-03-14T08:20:00.466Z,17.48
2018-03-14T08:22:27.105Z,15.77
2018-03-14T08:24:53.740Z,17.98
2018-03-14T08:27:20.364Z,15.07
2018-03-14T08:29:46.991Z,13.65
2018-03-14T08:32:13.673Z,16.20
2018-03-14T08:34:40.393Z,15.38
2018-03-14T08:37:07.131Z,14.95
2018-03-14T08:39:33.898Z,14.02
2018-03-14T08:42:00.546Z,13.80
2018-03-14T08:44:27.253Z,15.57
2018-03-14T08:46:53.945Z,16.02
2018-03-14T08:49:20.657Z,14.80
2018-03-14T08:51:47.295Z,14.90
2018-03-14T08:54:14.009Z,14.82
2018-03-14T08:56:40.652Z,13.80
2018-03-14T08:59:07.285Z,14.60
2018-03-14T09:01:33.933Z,13.90
2018-03-14T09:04:00.561Z,13.48
2018-03-14T09:06:27.196Z,14.98
2018-03-14T09:08:53.872Z,13.93
2018-03-14T09:11:20.525Z,14.60
2018-03-14T09:13:47.152Z,14.95
2018-03-14T09:16:13.893Z,14.77
2018-03-14T09:18:40.545Z,15.05
2018-03-14T09:21:07.244Z,14.85
2018-03-14T09:23:33.993Z,15.20
2018-03-14T09:26:00.621Z,14.02
2018-03-14T09:28:27.264Z,14.73
2018-03-14T09:30:53.890Z,13.80
2018-03-14T09:33:20.582Z,14.87
2018-03-14T09:35:47.209Z,14.82
2018-03-14T09:38:13.866Z,16.37
2018-03-14T09:40:40.564Z,15.07
2018-03-14T09:43:07.196Z,15.20
2018-03-14T09:45:33.824Z,16.05
2018-03-14T09:48:00.456Z,15.40
2018-03-14T09:50:27.080Z,15.10
2018-03-14T09:52:53.785Z,14.13
2018-03-14T09:55:20.416Z,15.70
2018-03-14T09:57:47.140Z,15.20
2018-03-14T10:00:13.773Z,16.75
2018-03-14T10:02:40.530Z,14.98
2018-03-14T10:05:07.274Z,14.23
2018-03-14T10:07:33.904Z,16.98
2018-03-14T10:10:00.649Z,15.85
2018-03-14T10:12:27.277Z,16.95
2018-03-14T10:14:53.912Z,15.50
2018-03-14T10:17:20.535Z,13.70
2018-03-14T10:19:47.187Z,14.52
2018-03-14T10:22:13.848Z,16.40
2018-03-14T10:24:40.504Z,15.45
2018-03-14T10:27:07.128Z,14.95
2018-03-14T10:29:33.768Z,15.38
2018-03-14T10:32:00.398Z,13.50
2018-03-14T10:34:27.135Z,15.13
2018-03-14T10:36:53.765Z,12.98
2018-03-14T10:39:20.526Z,13.88
2018-03-14T10:41:47.152Z,13.18
2018-03-14T10:44:13.821Z,15.00
2018-03-14T10:46:40.452Z,14.50
2018-03-14T10:49:07.185Z,13.65
2018-03-14T10:51:33.815Z,15.02
2018-03-14T10:54:00.461Z,14.87
2018-03-14T10:56:27.202Z,13.15
2018-03-14T10:58:53.863Z,13.52
2018-03-14T11:01:21.219Z,13.85
2018-03-14T11:03:47.866Z,15.07
2018-03-14T11:06:14.496Z,14.50
2018-03-14T11:08:41.134Z,14.63
2018-03-14T11:11:07.878Z,12.73
2018-03-14T11:13:34.587Z,15.57
2018-03-14T11:16:01.328Z,13.95
2018-03-14T11:18:27.998Z,15.73
2018-03-14T11:20:54.721Z,14.18
2018-03-14T11:23:21.356Z,14.02
2018-03-14T11:25:48.088Z,13.90
2018-03-14T11:28:14.716Z,14.27
2018-03-14T11:30:41.373Z,14.48
2018-03-14T11:33:08.141Z,13.65
2018-03-14T11:35:34.784Z,15.43
2018-03-14T11:38:01.418Z,14.43
2018-03-14T11:40:28.135Z,14.80
2018-03-14T11:42:54.888Z,13.60
2018-03-14T11:45:21.533Z,14.13
2018-03-14T11:47:48.256Z,11.85
2018-03-14T11:50:14.876Z,12.70
2018-03-14T11:52:41.528Z,13.18
2018-03-14T11:55:08.152Z,12.75
2018-03-14T11:57:34.817Z,12.93
2018-03-14T12:00:01.556Z,11.20
2018-03-14T12:02:28.296Z,12.05
2018-03-14T12:04:55.045Z,11.65
2018-03-14T12:07:21.702Z,13.82
2018-03-14T12:09:48.335Z,12.70
2018-03-14T12:12:14.996Z,14.57
2018-03-14T12:14:41.695Z,13.57
2018-03-14T12:17:09.395Z,13.75
2018-03-14T12:19:36.037Z,13.48
2018-03-14T12:22:02.703Z,14.55
2018-03-14T12:24:29.452Z,15.30
2018-03-14T12:26:56.212Z,14.90
2018-03-14T12:29:22.861Z,12.43
2018-03-14T12:31:49.502Z,13.98
2018-03-14T12:34:16.146Z,15.30
2018-03-14T12:36:42.875Z,14.20
2018-03-14T12:39:09.624Z,13.98
2018-03-14T12:41:36.288Z,13.18
2018-03-14T12:44:03.007Z,18.92
2018-03-14T12:46:29.652Z,12.63
2018-03-14T12:48:56.320Z,13.57
2018-03-14T12:51:23.026Z,11.27
2018-03-14T12:53:50.684Z,12.30
2018-03-14T12:56:17.575Z,12.90
2018-03-14T12:58:44.235Z,15.07
2018-03-14T13:01:11.040Z,12.73
2018-03-14T13:03:38.057Z,12.13
2018-03-14T13:06:04.833Z,14.68
2018-03-14T13:08:31.499Z,13.35
2018-03-14T13:10:58.185Z,13.98
2018-03-14T13:13:24.923Z,14.55
2018-03-14T13:15:51.548Z,14.07
2018-03-14T13:18:18.192Z,13.52
2018-03-14T13:20:44.824Z,14.15
2018-03-14T13:23:11.508Z,12.37
2018-03-14T13:25:38.296Z,13.30
2018-03-14T13:28:04.968Z,13.77
2018-03-14T13:30:31.711Z,12.80
2018-03-14T13:32:58.338Z,14.75
2018-03-14T13:35:24.984Z,13.23
2018-03-14T13:37:51.621Z,13.02
2018-03-14T13:40:18.369Z,13.27
2018-03-14T13:42:44.996Z,12.73
2018-03-14T13:45:11.638Z,15.38
2018-03-14T13:47:38.292Z,12.60
2018-03-14T13:50:05.051Z,13.07
2018-03-14T13:52:31.765Z,13.95
2018-03-14T13:54:58.408Z,15.40
2018-03-14T13:57:25.033Z,13.73
2018-03-14T13:59:51.709Z,14.70
2018-03-14T14:02:18.430Z,13.93
2018-03-14T14:04:45.072Z,19.02
2018-03-14T14:07:11.810Z,17.10
2018-03-14T14:09:38.453Z,12.52
2018-03-14T14:12:05.081Z,19.17
2018-03-14T14:14:31.850Z,12.35
2018-03-14T14:16:58.585Z,12.50
2018-03-14T14:19:25.242Z,16.58
2018-03-14T14:21:51.869Z,20.95
2018-03-14T14:24:18.579Z,23.52
2018-03-14T14:26:45.328Z,20.20
2018-03-14T14:29:12.073Z,13.52
2018-03-14T14:31:38.707Z,18.02
2018-03-14T14:34:05.339Z,19.77
2018-03-14T14:36:32.092Z,23.73
2018-03-14T14:38:58.716Z,19.77
2018-03-14T14:41:25.396Z,15.40
2018-03-14T14:43:52.115Z,14.90
2018-03-14T14:46:18.853Z,17.70
2018-03-14T14:48:45.515Z,18.05
2018-03-14T14:51:12.156Z,17.33
2018-03-14T14:53:38.779Z,15.48
2018-03-14T14:56:05.431Z,20.45
2018-03-14T14:58:32.143Z,13.62
2018-03-14T15:00:58.776Z,13.55
2018-03-14T15:03:25.496Z,13.77
2018-03-14T15:05:52.169Z,13.07
2018-03-14T15:08:18.832Z,16.42
2018-03-14T15:10:45.550Z,13.43
2018-03-14T15:13:12.214Z,15.05
2018-03-14T15:15:38.847Z,15.25
2018-03-14T15:18:05.481Z,25.92
2018-03-14T15:20:32.121Z,19.77
2018-03-14T15:22:58.872Z,14.18
2018-03-14T15:25:25.588Z,13.85
2018-03-14T15:27:52.267Z,17.95
2018-03-14T15:30:18.897Z,14.30
2018-03-14T15:32:45.617Z,13.38
2018-03-14T15:35:12.253Z,13.25
2018-03-14T15:37:38.896Z,24.27
2018-03-14T15:40:05.525Z,14.35
2018-03-14T15:42:32.172Z,15.75
2018-03-14T15:44:58.932Z,21.73
2018-03-14T15:47:25.672Z,14.07
2018-03-14T15:49:52.304Z,16.87
2018-03-14T15:52:18.950Z,20.08
2018-03-14T15:54:45.577Z,16.30
2018-03-14T15:57:12.310Z,18.20
2018-03-14T15:59:38.948Z,14.48
2018-03-14T16:02:05.580Z,14.75
2018-03-14T16:04:32.230Z,13.45
2018-03-14T16:06:58.967Z,16.45
2018-03-14T16:09:25.646Z,16.70
2018-03-14T16:11:52.390Z,15.68
2018-03-14T16:14:19.089Z,13.90
2018-03-14T16:16:45.716Z,16.77
2018-03-14T16:19:12.466Z,19.08
2018-03-14T16:21:39.097Z,15.95
2018-03-14T16:24:05.853Z,14.52
2018-03-14T16:26:32.481Z,14.70
2018-03-14T16:28:59.117Z,14.15
2018-03-14T16:31:25.740Z,14.00
2018-03-14T16:33:52.375Z,16.85
2018-03-14T16:36:18.999Z,14.43
2018-03-14T16:38:45.691Z,15.05
2018-03-14T16:41:12.320Z,15.40
2018-03-14T16:43:38.964Z,15.60
2018-03-14T16:46:05.601Z,20.92
2018-03-14T16:48:32.229Z,19.98
2018-03-14T16:50:58.868Z,18.33
2018-03-14T16:53:25.488Z,21.23
2018-03-14T16:55:52.128Z,23.83
2018-03-14T16:58:18.756Z,23.70
2018-03-14T17:00:45.389Z,23.20
2018-03-14T17:03:12.974Z,17.87
2018-03-14T17:05:39.608Z,26.23
2018-03-14T17:08:06.254Z,17.62
2018-03-14T17:10:32.896Z,22.48
2018-03-14T17:12:59.525Z,18.62
2018-03-14T17:15:26.160Z,19.80
2018-03-14T17:17:52.828Z,15.15
2018-03-14T17:20:19.464Z,16.70
2018-03-14T17:22:46.110Z,17.83
2018-03-14T17:25:12.853Z,23.62
2018-03-14T17:27:39.483Z,21.80
2018-03-14T17:30:06.125Z,17.77
2018-03-14T17:32:32.878Z,15.80
2018-03-14T17:34:59.503Z,18.45
2018-03-14T17:37:26.151Z,17.12
2018-03-14T17:39:52.783Z,17.05
2018-03-14T17:42:19.430Z,18.35
2018-03-14T17:44:46.052Z,18.52
2018-03-14T17:47:12.695Z,21.02
2018-03-14T17:49:39.319Z,22.15
2018-03-14T17:52:05.984Z,18.83
2018-03-14T17:54:32.729Z,20.17
2018-03-14T17:56:59.363Z,17.92
2018-03-14T17:59:26.096Z,21.17
2018-03-14T18:01:52.727Z,18.73
2018-03-14T18:04:19.381Z,19.70
2018-03-14T18:06:46.020Z,19.90
2018-03-14T18:09:12.762Z,20.58
2018-03-14T18:11:39.396Z,18.98
2018-03-14T18:14:06.038Z,19.50
2018-03-14T18:16:32.781Z,18.62
2018-03-14T18:18:59.529Z,19.55
2018-03-14T18:21:26.218Z,20.62
2018-03-14T18:23:52.830Z,20.62
2018-03-14T18:26:19.465Z,18.98
2018-03-14T18:28:46.101Z,20.17
2018-03-14T18:31:12.728Z,18.65
2018-03-14T18:33:39.365Z,21.23
2018-03-14T18:36:05.994Z,17.92
2018-03-14T18:38:32.742Z,17.12
2018-03-14T18:40:59.481Z,17.10
2018-03-14T18:43:26.126Z,17.40
2018-03-14T18:45:52.873Z,18.23
2018-03-14T18:48:19.608Z,17.15
2018-03-14T18:50:46.340Z,17.35
2018-03-14T18:53:12.984Z,16.02
2018-03-14T18:55:39.619Z,15.75
2018-03-14T18:58:06.260Z,16.80
2018-03-14T19:00:33.001Z,16.02
2018-03-14T19:02:59.631Z,18.23
2018-03-14T19:05:26.262Z,16.90
2018-03-14T19:07:52.892Z,17.10
2018-03-14T19:10:19.573Z,17.60
2018-03-14T19:12:46.208Z,22.80
2018-03-14T19:15:12.864Z,22.08
2018-03-14T19:17:39.577Z,23.00
2018-03-14T19:20:06.320Z,21.12
2018-03-14T19:22:33.105Z,23.80
2018-03-14T19:24:59.713Z,23.25
2018-03-14T19:27:26.348Z,19.85
2018-03-14T19:29:53.003Z,23.27
2018-03-14T19:32:19.631Z,22.35
2018-03-14T19:34:46.364Z,23.45
2018-03-14T19:37:13.003Z,22.70
2018-03-14T19:39:39.651Z,25.60
2018-03-14T19:42:06.285Z,21.12
2018-03-14T19:44:32.929Z,24.75
2018-03-14T19:46:59.561Z,24.33
2018-03-14T19:49:26.201Z,20.40
2018-03-14T19:51:52.939Z,17.85
2018-03-14T19:54:19.677Z,17.75
2018-03-14T19:56:46.304Z,29.58
2018-03-14T19:59:12.950Z,19.02
2018-03-14T20:01:39.582Z,18.62
2018-03-14T20:04:06.221Z,20.20
2018-03-14T20:06:32.866Z,21.73
2018-03-14T20:08:59.652Z,18.17
2018-03-14T20:11:26.181Z,17.37
2018-03-14T20:13:52.885Z,18.08
2018-03-14T20:16:19.528Z,21.08
2018-03-14T20:18:46.194Z,23.92
2018-03-14T20:21:12.837Z,21.62
2018-03-14T20:23:39.548Z,19.02
2018-03-14T20:26:06.302Z,16.87
2018-03-14T20:28:32.928Z,17.15
2018-03-14T20:30:59.590Z,16.50
2018-03-14T20:33:26.312Z,14.38
2018-03-14T20:35:52.956Z,14.85
2018-03-14T20:38:19.692Z,14.73
2018-03-14T20:40:46.433Z,15.63
2018-03-14T20:43:13.064Z,16.08
2018-03-14T20:45:39.699Z,15.68
2018-03-14T20:48:06.333Z,15.50
2018-03-14T20:50:32.984Z,17.20
2018-03-14T20:52:59.633Z,13.25
2018-03-14T20:55:26.272Z,13.50
2018-03-14T20:57:53.052Z,14.73
2018-03-14T21:00:19.650Z,16.23
2018-03-14T21:02:46.401Z,19.15
2018-03-14T21:05:13.041Z,19.12
2018-03-14T21:07:39.681Z,18.80
2018-03-14T21:10:06.303Z,19.25
2018-03-14T21:12:32.952Z,20.40
2018-03-14T21:14:59.689Z,20.27
2018-03-14T21:17:26.440Z,17.23
2018-03-14T21:19:53.141Z,20.58
2018-03-14T21:22:19.777Z,22.33
2018-03-14T21:24:46.408Z,21.85
2018-03-14T21:27:13.102Z,19.00
2018-03-14T21:29:39.828Z,20.58
2018-03-14T21:32:06.464Z,17.80
2018-03-14T21:34:33.096Z,19.30
2018-03-14T21:36:59.849Z,17.62
2018-03-14T21:39:26.481Z,19.37
2018-03-14T21:41:53.108Z,18.30
2018-03-14T21:44:19.749Z,18.92
2018-03-14T21:46:46.394Z,18.65
2018-03-14T21:49:13.041Z,20.33
2018-03-14T21:51:39.680Z,21.05
2018-03-14T21:54:06.428Z,20.25
2018-03-14T21:56:33.062Z,19.52
2018-03-14T21:58:59.708Z,20.92
2018-03-14T22:01:26.444Z,19.35
2018-03-14T22:03:53.101Z,19.20
2018-03-14T22:06:19.740Z,21.77
2018-03-14T22:08:46.376Z,21.95
2018-03-14T22:11:13.004Z,22.23
2018-03-14T22:13:39.648Z,22.13
2018-03-14T22:16:06.293Z,22.33
2018-03-14T22:18:32.933Z,23.20
2018-03-14T22:20:59.565Z,21.73
2018-03-14T22:23:26.213Z,22.17
2018-03-14T22:25:52.848Z,20.50
2018-03-14T22:28:19.581Z,20.30
2018-03-14T22:30:46.204Z,19.50
2018-03-14T22:33:12.862Z,21.27
2018-03-14T22:35:39.500Z,20.95
2018-03-14T22:38:06.138Z,24.17
2018-03-14T22:40:32.785Z,20.40
2018-03-14T22:42:59.519Z,20.80
2018-03-14T22:45:26.160Z,20.37
2018-03-14T22:47:52.896Z,19.37
2018-03-14T22:50:19.539Z,19.77
2018-03-14T22:52:46.168Z,21.17
2018-03-14T22:55:12.804Z,21.60
2018-03-14T22:57:39.437Z,20.60
2018-03-14T23:00:06.105Z,19.75
2018-03-14T23:02:32.737Z,22.77
2018-03-14T23:04:59.477Z,20.17
2018-03-14T23:07:26.108Z,22.13
2018-03-14T23:09:52.758Z,21.92
2018-03-14T23:12:19.388Z,22.25
2018-03-14T23:14:46.032Z,21.10
2018-03-14T23:17:12.661Z,20.25
2018-03-14T23:19:39.288Z,20.05
2018-03-14T23:22:05.928Z,22.17
2018-03-14T23:24:32.586Z,20.12
2018-03-14T23:26:59.329Z,23.08
2018-03-14T23:29:26.084Z,22.00
2018-03-14T23:31:52.724Z,19.52
2018-03-14T23:34:19.352Z,20.70
2018-03-14T23:36:45.997Z,20.90
2018-03-14T23:39:13.461Z,21.10
2018-03-14T23:41:40.106Z,21.10
2018-03-14T23:44:06.738Z,22.30
2018-03-14T23:46:33.424Z,20.58
2018-03-14T23:49:00.057Z,21.37
2018-03-14T23:51:26.709Z,22.37
2018-03-14T23:53:53.377Z,20.95
2018-03-14T23:56:20.120Z,22.50
2018-03-14T23:58:46.761Z,23.25
